Frankfort, New York
Current Conditions -  °F | °C
As of 1:53 PM on Thursday 23 Oct 2014 (Local Time) from KRME Reporting Station
Overcast Overcast  
Wind Chill: 50°   Ceiling: 2700
Heat Index: 50°   Visibility: 10mi
Dew Point: 41°   Wind: 12mph
Humidity: 71%   Direction: 340°NNW
Pressure: 29.92"   Gusts: 18mph
Location:  43.04°N, 75.07°W
Report Text: KRME 231753Z 34010G16KT 10SM OVC027 10/05 A2992 RMK AO2 SLP132 T01000050 10100 20072 56012
Loading
Personal Weather Stations






























Interactive Weather Map
Tropical Storm Tracking
New forecast layout! Learn more

10-Day Weather Forecast

Advertisements
Track Severe Weather on mobile